Redway, California
Current Conditions -  °F | °C
As of 9:15 AM on Saturday 20 Dec 2014 (Local Time) from KFOT Reporting Station
Overcast Overcast  
Wind Chill: 54°   Ceiling: 4300
Heat Index: 54°   Visibility: 5mi
Dew Point: 50°   Wind: 18mph
Humidity: 88%   Direction: 120°ESE
Pressure: 30.05"   Gusts: NA
Location:  40.12°N, 123.82°W
Report Text: KFOT 201715Z AUTO 12016KT 5SM FEW035 BKN043 OVC060 12/10 A3005 RMK AO1 P0002
Loading
Personal Weather Stations






























Interactive Weather Map New forecast layout! Learn more

10-Day Weather Forecast

Advertisements
Track Severe Weather on mobile